sensor_id;sensor_type;location;lat;lon;timestamp;P1;durP1;ratioP1;P2;durP2;ratioP2
3207;SDS011;1616;52.394;9.756;2023-07-29T00:02:01;2.00;;;1.90;;
3207;SDS011;1616;52.394;9.756;2023-07-29T00:04:27;4.67;;;1.73;;
3207;SDS011;1616;52.394;9.756;2023-07-29T00:06:52;1.53;;;1.43;;
3207;SDS011;1616;52.394;9.756;2023-07-29T00:09:18;1.60;;;1.50;;
3207;SDS011;1616;52.394;9.756;2023-07-29T00:11:44;5.50;;;1.57;;
3207;SDS011;1616;52.394;9.756;2023-07-29T00:14:09;2.50;;;1.43;;
3207;SDS011;1616;52.394;9.756;2023-07-29T00:16:35;2.17;;;1.60;;
3207;SDS011;1616;52.394;9.756;2023-07-29T00:19:02;1.60;;;1.33;;
3207;SDS011;1616;52.394;9.756;2023-07-29T00:21:27;1.60;;;1.50;;
3207;SDS011;1616;52.394;9.756;2023-07-29T00:23:53;1.60;;;1.30;;
3207;SDS011;1616;52.394;9.756;2023-07-29T00:26:19;1.30;;;1.20;;
3207;SDS011;1616;52.394;9.756;2023-07-29T00:28:47;1.30;;;1.20;;
3207;SDS011;1616;52.394;9.756;2023-07-29T00:31:12;1.40;;;1.30;;
3207;SDS011;1616;52.394;9.756;2023-07-29T00:33:38;1.73;;;1.63;;
3207;SDS011;1616;52.394;9.756;2023-07-29T00:36:03;5.67;;;2.07;;
3207;SDS011;1616;52.394;9.756;2023-07-29T00:38:29;1.57;;;1.47;;
3207;SDS011;1616;52.394;9.756;2023-07-29T00:40:58;1.47;;;1.20;;
3207;SDS011;1616;52.394;9.756;2023-07-29T00:43:27;2.80;;;1.50;;
3207;SDS011;1616;52.394;9.756;2023-07-29T00:45:53;1.50;;;1.30;;
3207;SDS011;1616;52.394;9.756;2023-07-29T00:48:18;3.63;;;1.30;;
3207;SDS011;1616;52.394;9.756;2023-07-29T00:50:44;3.50;;;1.50;;
3207;SDS011;1616;52.394;9.756;2023-07-29T00:53:10;1.60;;;1.50;;
3207;SDS011;1616;52.394;9.756;2023-07-29T00:55:36;1.70;;;1.60;;
3207;SDS011;1616;52.394;9.756;2023-07-29T00:58:02;1.50;;;1.40;;
3207;SDS011;1616;52.394;9.756;2023-07-29T01:00:28;1.50;;;1.40;;
3207;SDS011;1616;52.394;9.756;2023-07-29T01:02:54;5.70;;;1.50;;
3207;SDS011;1616;52.394;9.756;2023-07-29T01:05:20;3.20;;;1.80;;
3207;SDS011;1616;52.394;9.756;2023-07-29T01:07:51;1.77;;;1.30;;
3207;SDS011;1616;52.394;9.756;2023-07-29T01:13:17;1.40;;;1.30;;
3207;SDS011;1616;52.394;9.756;2023-07-29T01:15:59;1.20;;;1.10;;
3207;SDS011;1616;52.394;9.756;2023-07-29T01:18:31;1.50;;;1.40;;
3207;SDS011;1616;52.394;9.756;2023-07-29T01:21:02;1.40;;;1.30;;
3207;SDS011;1616;52.394;9.756;2023-07-29T01:23:30;1.30;;;1.20;;
3207;SDS011;1616;52.394;9.756;2023-07-29T01:25:57;1.60;;;1.50;;
3207;SDS011;1616;52.394;9.756;2023-07-29T01:28:23;4.80;;;1.47;;
3207;SDS011;1616;52.394;9.756;2023-07-29T01:30:51;1.40;;;1.30;;
3207;SDS011;1616;52.394;9.756;2023-07-29T01:33:26;1.40;;;1.30;;
3207;SDS011;1616;52.394;9.756;2023-07-29T01:35:59;1.60;;;1.50;;
3207;SDS011;1616;52.394;9.756;2023-07-29T01:38:29;4.13;;;1.60;;
3207;SDS011;1616;52.394;9.756;2023-07-29T01:41:00;1.37;;;1.27;;
3207;SDS011;1616;52.394;9.756;2023-07-29T01:43:28;1.73;;;1.50;;
3207;SDS011;1616;52.394;9.756;2023-07-29T01:45:54;1.60;;;1.50;;
3207;SDS011;1616;52.394;9.756;2023-07-29T01:48:20;1.63;;;1.53;;
3207;SDS011;1616;52.394;9.756;2023-07-29T01:50:46;1.70;;;1.57;;
3207;SDS011;1616;52.394;9.756;2023-07-29T01:53:12;1.83;;;1.70;;
3207;SDS011;1616;52.394;9.756;2023-07-29T01:55:38;1.47;;;1.37;;
3207;SDS011;1616;52.394;9.756;2023-07-29T01:58:04;1.40;;;1.30;;
3207;SDS011;1616;52.394;9.756;2023-07-29T02:00:30;2.80;;;1.40;;
3207;SDS011;1616;52.394;9.756;2023-07-29T02:02:55;2.23;;;1.47;;
3207;SDS011;1616;52.394;9.756;2023-07-29T02:05:21;1.77;;;1.50;;
3207;SDS011;1616;52.394;9.756;2023-07-29T02:07:47;3.70;;;1.20;;
3207;SDS011;1616;52.394;9.756;2023-07-29T02:10:13;1.50;;;1.27;;
3207;SDS011;1616;52.394;9.756;2023-07-29T02:12:39;2.33;;;1.30;;
3207;SDS011;1616;52.394;9.756;2023-07-29T02:15:05;1.60;;;1.50;;
3207;SDS011;1616;52.394;9.756;2023-07-29T02:17:31;2.40;;;1.40;;
3207;SDS011;1616;52.394;9.756;2023-07-29T02:19:57;1.43;;;1.33;;
3207;SDS011;1616;52.394;9.756;2023-07-29T02:22:23;1.50;;;1.40;;
3207;SDS011;1616;52.394;9.756;2023-07-29T02:24:48;1.30;;;1.20;;
3207;SDS011;1616;52.394;9.756;2023-07-29T02:27:14;1.40;;;1.30;;
3207;SDS011;1616;52.394;9.756;2023-07-29T02:29:41;1.50;;;1.40;;
3207;SDS011;1616;52.394;9.756;2023-07-29T02:32:07;1.43;;;1.33;;
3207;SDS011;1616;52.394;9.756;2023-07-29T02:34:33;1.20;;;1.10;;
3207;SDS011;1616;52.394;9.756;2023-07-29T02:36:59;1.30;;;1.20;;
3207;SDS011;1616;52.394;9.756;2023-07-29T02:39:25;4.50;;;1.20;;
3207;SDS011;1616;52.394;9.756;2023-07-29T02:41:50;3.17;;;1.30;;
3207;SDS011;1616;52.394;9.756;2023-07-29T02:44:16;1.30;;;1.20;;
3207;SDS011;1616;52.394;9.756;2023-07-29T02:46:42;1.27;;;1.17;;
3207;SDS011;1616;52.394;9.756;2023-07-29T02:49:08;1.40;;;1.20;;
3207;SDS011;1616;52.394;9.756;2023-07-29T02:51:34;1.60;;;1.50;;
3207;SDS011;1616;52.394;9.756;2023-07-29T02:53:59;1.50;;;1.40;;
3207;SDS011;1616;52.394;9.756;2023-07-29T02:56:25;1.30;;;1.20;;
3207;SDS011;1616;52.394;9.756;2023-07-29T02:58:51;1.70;;;1.60;;
3207;SDS011;1616;52.394;9.756;2023-07-29T03:01:17;1.50;;;1.37;;
3207;SDS011;1616;52.394;9.756;2023-07-29T03:03:42;3.67;;;1.30;;
3207;SDS011;1616;52.394;9.756;2023-07-29T03:06:10;3.23;;;1.20;;
3207;SDS011;1616;52.394;9.756;2023-07-29T03:08:38;3.17;;;1.40;;
3207;SDS011;1616;52.394;9.756;2023-07-29T03:11:07;1.30;;;1.20;;
3207;SDS011;1616;52.394;9.756;2023-07-29T03:13:34;1.53;;;1.43;;
3207;SDS011;1616;52.394;9.756;2023-07-29T03:16:10;1.30;;;1.20;;
3207;SDS011;1616;52.394;9.756;2023-07-29T03:18:41;1.60;;;1.50;;
3207;SDS011;1616;52.394;9.756;2023-07-29T03:21:07;5.43;;;1.33;;
3207;SDS011;1616;52.394;9.756;2023-07-29T03:23:34;1.60;;;1.40;;
3207;SDS011;1616;52.394;9.756;2023-07-29T03:26:00;3.50;;;1.40;;
3207;SDS011;1616;52.394;9.756;2023-07-29T03:28:29;1.30;;;1.20;;
3207;SDS011;1616;52.394;9.756;2023-07-29T03:30:58;6.70;;;1.30;;
3207;SDS011;1616;52.394;9.756;2023-07-29T03:33:24;1.30;;;1.20;;
3207;SDS011;1616;52.394;9.756;2023-07-29T03:35:51;1.37;;;1.27;;
3207;SDS011;1616;52.394;9.756;2023-07-29T03:38:17;1.40;;;1.30;;
3207;SDS011;1616;52.394;9.756;2023-07-29T03:40:43;5.10;;;1.50;;
3207;SDS011;1616;52.394;9.756;2023-07-29T03:43:09;1.20;;;1.10;;
3207;SDS011;1616;52.394;9.756;2023-07-29T03:45:35;5.73;;;1.47;;
3207;SDS011;1616;52.394;9.756;2023-07-29T03:48:02;1.73;;;1.50;;
3207;SDS011;1616;52.394;9.756;2023-07-29T03:50:29;2.90;;;1.70;;
3207;SDS011;1616;52.394;9.756;2023-07-29T03:52:57;1.90;;;1.20;;
3207;SDS011;1616;52.394;9.756;2023-07-29T03:55:23;2.53;;;1.20;;
3207;SDS011;1616;52.394;9.756;2023-07-29T03:57:49;1.50;;;1.40;;
3207;SDS011;1616;52.394;9.756;2023-07-29T04:00:14;2.33;;;1.30;;
3207;SDS011;1616;52.394;9.756;2023-07-29T04:02:41;1.53;;;1.43;;
3207;SDS011;1616;52.394;9.756;2023-07-29T04:05:07;1.50;;;1.40;;
3207;SDS011;1616;52.394;9.756;2023-07-29T04:07:33;1.77;;;1.30;;
3207;SDS011;1616;52.394;9.756;2023-07-29T04:10:00;1.63;;;1.20;;
3207;SDS011;1616;52.394;9.756;2023-07-29T04:12:26;4.50;;;1.20;;
3207;SDS011;1616;52.394;9.756;2023-07-29T04:14:53;1.40;;;1.30;;
3207;SDS011;1616;52.394;9.756;2023-07-29T04:17:19;2.40;;;1.50;;
3207;SDS011;1616;52.394;9.756;2023-07-29T04:19:44;1.37;;;1.27;;
3207;SDS011;1616;52.394;9.756;2023-07-29T04:22:10;2.87;;;1.23;;
3207;SDS011;1616;52.394;9.756;2023-07-29T04:24:35;1.50;;;1.40;;
3207;SDS011;1616;52.394;9.756;2023-07-29T04:27:01;3.10;;;1.40;;
3207;SDS011;1616;52.394;9.756;2023-07-29T04:29:27;6.17;;;1.40;;
3207;SDS011;1616;52.394;9.756;2023-07-29T04:31:52;2.20;;;1.40;;
3207;SDS011;1616;52.394;9.756;2023-07-29T04:34:18;1.50;;;1.30;;
3207;SDS011;1616;52.394;9.756;2023-07-29T04:36:48;1.50;;;1.40;;
3207;SDS011;1616;52.394;9.756;2023-07-29T04:39:13;1.43;;;1.33;;
3207;SDS011;1616;52.394;9.756;2023-07-29T04:41:39;1.40;;;1.30;;
3207;SDS011;1616;52.394;9.756;2023-07-29T04:44:05;1.53;;;1.43;;
3207;SDS011;1616;52.394;9.756;2023-07-29T04:46:32;1.50;;;1.40;;
3207;SDS011;1616;52.394;9.756;2023-07-29T04:48:58;1.70;;;1.60;;
3207;SDS011;1616;52.394;9.756;2023-07-29T04:51:24;2.07;;;1.10;;
3207;SDS011;1616;52.394;9.756;2023-07-29T04:53:50;1.40;;;1.30;;
3207;SDS011;1616;52.394;9.756;2023-07-29T04:56:16;1.53;;;1.43;;
3207;SDS011;1616;52.394;9.756;2023-07-29T04:58:41;1.93;;;1.40;;
3207;SDS011;1616;52.394;9.756;2023-07-29T05:01:07;2.40;;;1.70;;
3207;SDS011;1616;52.394;9.756;2023-07-29T05:03:33;2.30;;;1.50;;
3207;SDS011;1616;52.394;9.756;2023-07-29T05:05:59;1.63;;;1.53;;
3207;SDS011;1616;52.394;9.756;2023-07-29T05:08:27;7.07;;;1.80;;
3207;SDS011;1616;52.394;9.756;2023-07-29T05:10:54;1.67;;;1.50;;
3207;SDS011;1616;52.394;9.756;2023-07-29T05:13:20;1.60;;;1.50;;
3207;SDS011;1616;52.394;9.756;2023-07-29T05:15:47;1.73;;;1.63;;
3207;SDS011;1616;52.394;9.756;2023-07-29T05:18:14;1.80;;;1.70;;
3207;SDS011;1616;52.394;9.756;2023-07-29T05:20:40;2.17;;;1.97;;
3207;SDS011;1616;52.394;9.756;2023-07-29T05:23:06;1.70;;;1.60;;
3207;SDS011;1616;52.394;9.756;2023-07-29T05:25:32;1.90;;;1.80;;
3207;SDS011;1616;52.394;9.756;2023-07-29T05:28:00;1.47;;;1.37;;
3207;SDS011;1616;52.394;9.756;2023-07-29T05:30:26;1.60;;;1.50;;
3207;SDS011;1616;52.394;9.756;2023-07-29T05:32:55;1.50;;;1.40;;
3207;SDS011;1616;52.394;9.756;2023-07-29T05:35:22;2.60;;;1.50;;
3207;SDS011;1616;52.394;9.756;2023-07-29T05:37:48;3.03;;;1.70;;
3207;SDS011;1616;52.394;9.756;2023-07-29T05:40:13;2.23;;;1.90;;
3207;SDS011;1616;52.394;9.756;2023-07-29T05:42:39;9.53;;;1.73;;
3207;SDS011;1616;52.394;9.756;2023-07-29T05:45:04;2.17;;;1.30;;
3207;SDS011;1616;52.394;9.756;2023-07-29T05:47:31;1.40;;;1.30;;
3207;SDS011;1616;52.394;9.756;2023-07-29T05:49:56;1.80;;;1.70;;
3207;SDS011;1616;52.394;9.756;2023-07-29T05:52:22;1.60;;;1.50;;
3207;SDS011;1616;52.394;9.756;2023-07-29T05:54:48;3.47;;;2.00;;
3207;SDS011;1616;52.394;9.756;2023-07-29T05:57:13;1.77;;;1.50;;
3207;SDS011;1616;52.394;9.756;2023-07-29T05:59:39;2.60;;;1.80;;
3207;SDS011;1616;52.394;9.756;2023-07-29T06:02:05;1.70;;;1.60;;
3207;SDS011;1616;52.394;9.756;2023-07-29T06:04:31;1.70;;;1.60;;
3207;SDS011;1616;52.394;9.756;2023-07-29T06:06:57;1.40;;;1.30;;
3207;SDS011;1616;52.394;9.756;2023-07-29T06:09:22;6.63;;;1.30;;
3207;SDS011;1616;52.394;9.756;2023-07-29T06:11:48;1.50;;;1.40;;
3207;SDS011;1616;52.394;9.756;2023-07-29T06:14:14;1.87;;;1.77;;
3207;SDS011;1616;52.394;9.756;2023-07-29T06:16:40;1.50;;;1.40;;
3207;SDS011;1616;52.394;9.756;2023-07-29T06:19:08;1.60;;;1.40;;
3207;SDS011;1616;52.394;9.756;2023-07-29T06:21:34;1.77;;;1.40;;
3207;SDS011;1616;52.394;9.756;2023-07-29T06:24:00;3.83;;;1.50;;
3207;SDS011;1616;52.394;9.756;2023-07-29T06:26:26;1.77;;;1.67;;
3207;SDS011;1616;52.394;9.756;2023-07-29T06:28:52;1.70;;;1.60;;
3207;SDS011;1616;52.394;9.756;2023-07-29T06:31:18;1.40;;;1.30;;
3207;SDS011;1616;52.394;9.756;2023-07-29T06:33:43;1.50;;;1.40;;
3207;SDS011;1616;52.394;9.756;2023-07-29T06:36:09;1.63;;;1.53;;
3207;SDS011;1616;52.394;9.756;2023-07-29T06:38:35;1.57;;;1.47;;
3207;SDS011;1616;52.394;9.756;2023-07-29T06:41:00;1.60;;;1.50;;
3207;SDS011;1616;52.394;9.756;2023-07-29T06:43:26;2.33;;;1.60;;
3207;SDS011;1616;52.394;9.756;2023-07-29T06:45:52;3.93;;;1.50;;
3207;SDS011;1616;52.394;9.756;2023-07-29T06:48:17;3.07;;;1.67;;
3207;SDS011;1616;52.394;9.756;2023-07-29T06:50:45;1.50;;;1.40;;
3207;SDS011;1616;52.394;9.756;2023-07-29T06:53:10;1.97;;;1.40;;
3207;SDS011;1616;52.394;9.756;2023-07-29T06:55:37;1.60;;;1.30;;
3207;SDS011;1616;52.394;9.756;2023-07-29T06:58:02;1.37;;;1.27;;
3207;SDS011;1616;52.394;9.756;2023-07-29T07:00:28;1.40;;;1.30;;
3207;SDS011;1616;52.394;9.756;2023-07-29T07:02:53;1.87;;;1.20;;
3207;SDS011;1616;52.394;9.756;2023-07-29T07:05:19;1.40;;;1.30;;
3207;SDS011;1616;52.394;9.756;2023-07-29T07:07:45;1.33;;;1.23;;
3207;SDS011;1616;52.394;9.756;2023-07-29T07:10:10;1.80;;;1.30;;
3207;SDS011;1616;52.394;9.756;2023-07-29T07:12:36;1.60;;;1.40;;
3207;SDS011;1616;52.394;9.756;2023-07-29T07:15:02;1.37;;;1.20;;
3207;SDS011;1616;52.394;9.756;2023-07-29T07:17:28;1.30;;;1.20;;
3207;SDS011;1616;52.394;9.756;2023-07-29T07:19:54;1.30;;;1.17;;
3207;SDS011;1616;52.394;9.756;2023-07-29T07:22:19;2.90;;;1.70;;
3207;SDS011;1616;52.394;9.756;2023-07-29T07:24:45;1.30;;;1.20;;
3207;SDS011;1616;52.394;9.756;2023-07-29T07:27:10;1.40;;;1.30;;
3207;SDS011;1616;52.394;9.756;2023-07-29T07:29:36;2.30;;;1.37;;
3207;SDS011;1616;52.394;9.756;2023-07-29T07:32:02;4.60;;;1.30;;
3207;SDS011;1616;52.394;9.756;2023-07-29T07:34:28;1.50;;;1.40;;
3207;SDS011;1616;52.394;9.756;2023-07-29T07:36:54;2.20;;;1.40;;
3207;SDS011;1616;52.394;9.756;2023-07-29T07:39:20;1.80;;;1.23;;
3207;SDS011;1616;52.394;9.756;2023-07-29T07:41:45;1.30;;;1.20;;
3207;SDS011;1616;52.394;9.756;2023-07-29T07:44:11;4.30;;;1.23;;
3207;SDS011;1616;52.394;9.756;2023-07-29T07:46:42;4.83;;;1.40;;
3207;SDS011;1616;52.394;9.756;2023-07-29T07:49:08;1.50;;;1.40;;
3207;SDS011;1616;52.394;9.756;2023-07-29T07:51:34;2.70;;;1.20;;
3207;SDS011;1616;52.394;9.756;2023-07-29T07:54:00;1.77;;;1.30;;
3207;SDS011;1616;52.394;9.756;2023-07-29T07:56:26;1.30;;;1.20;;
3207;SDS011;1616;52.394;9.756;2023-07-29T07:58:51;1.30;;;1.20;;
3207;SDS011;1616;52.394;9.756;2023-07-29T08:01:17;1.40;;;1.10;;
3207;SDS011;1616;52.394;9.756;2023-07-29T08:03:43;1.30;;;1.20;;
3207;SDS011;1616;52.394;9.756;2023-07-29T08:06:08;1.20;;;1.10;;
3207;SDS011;1616;52.394;9.756;2023-07-29T08:08:34;1.80;;;1.13;;
3207;SDS011;1616;52.394;9.756;2023-07-29T08:11:00;1.33;;;1.23;;
3207;SDS011;1616;52.394;9.756;2023-07-29T08:13:25;1.40;;;1.30;;
3207;SDS011;1616;52.394;9.756;2023-07-29T08:15:52;3.40;;;1.20;;
3207;SDS011;1616;52.394;9.756;2023-07-29T08:18:18;2.00;;;1.27;;
3207;SDS011;1616;52.394;9.756;2023-07-29T08:20:56;2.27;;;1.30;;
3207;SDS011;1616;52.394;9.756;2023-07-29T08:23:24;3.57;;;1.30;;
3207;SDS011;1616;52.394;9.756;2023-07-29T08:25:54;4.03;;;1.33;;
3207;SDS011;1616;52.394;9.756;2023-07-29T08:28:21;3.20;;;1.20;;
3207;SDS011;1616;52.394;9.756;2023-07-29T08:30:48;1.33;;;1.23;;
3207;SDS011;1616;52.394;9.756;2023-07-29T08:33:14;1.50;;;1.40;;
3207;SDS011;1616;52.394;9.756;2023-07-29T08:35:41;1.73;;;1.60;;
3207;SDS011;1616;52.394;9.756;2023-07-29T08:38:06;6.80;;;1.90;;
3207;SDS011;1616;52.394;9.756;2023-07-29T08:40:33;3.80;;;2.00;;
3207;SDS011;1616;52.394;9.756;2023-07-29T08:43:02;1.90;;;1.70;;
3207;SDS011;1616;52.394;9.756;2023-07-29T08:45:34;2.33;;;2.13;;
3207;SDS011;1616;52.394;9.756;2023-07-29T08:48:02;5.43;;;2.50;;
3207;SDS011;1616;52.394;9.756;2023-07-29T08:50:32;2.20;;;2.10;;
3207;SDS011;1616;52.394;9.756;2023-07-29T08:52:59;2.90;;;2.70;;
3207;SDS011;1616;52.394;9.756;2023-07-29T08:55:25;2.10;;;2.00;;
3207;SDS011;1616;52.394;9.756;2023-07-29T08:57:51;2.00;;;1.90;;
3207;SDS011;1616;52.394;9.756;2023-07-29T09:00:18;3.00;;;2.10;;
3207;SDS011;1616;52.394;9.756;2023-07-29T09:02:44;2.60;;;2.10;;
3207;SDS011;1616;52.394;9.756;2023-07-29T09:05:10;3.33;;;2.00;;
3207;SDS011;1616;52.394;9.756;2023-07-29T09:07:35;1.60;;;1.50;;
3207;SDS011;1616;52.394;9.756;2023-07-29T09:10:02;1.80;;;1.70;;
3207;SDS011;1616;52.394;9.756;2023-07-29T09:12:27;1.90;;;1.80;;
3207;SDS011;1616;52.394;9.756;2023-07-29T09:14:53;2.73;;;1.40;;
3207;SDS011;1616;52.394;9.756;2023-07-29T09:17:22;1.90;;;1.80;;
3207;SDS011;1616;52.394;9.756;2023-07-29T09:19:51;4.17;;;2.13;;
3207;SDS011;1616;52.394;9.756;2023-07-29T09:22:20;2.57;;;2.00;;
3207;SDS011;1616;52.394;9.756;2023-07-29T09:24:46;5.53;;;1.50;;
3207;SDS011;1616;52.394;9.756;2023-07-29T09:27:27;1.70;;;1.60;;
3207;SDS011;1616;52.394;9.756;2023-07-29T09:29:57;3.53;;;1.70;;
3207;SDS011;1616;52.394;9.756;2023-07-29T09:32:23;2.40;;;2.20;;
3207;SDS011;1616;52.394;9.756;2023-07-29T09:34:51;2.00;;;1.80;;
3207;SDS011;1616;52.394;9.756;2023-07-29T09:37:23;2.03;;;1.93;;
3207;SDS011;1616;52.394;9.756;2023-07-29T09:39:49;2.20;;;2.10;;
3207;SDS011;1616;52.394;9.756;2023-07-29T09:42:19;2.47;;;2.37;;
3207;SDS011;1616;52.394;9.756;2023-07-29T09:44:47;2.20;;;2.10;;
3207;SDS011;1616;52.394;9.756;2023-07-29T09:47:20;4.13;;;2.83;;
3207;SDS011;1616;52.394;9.756;2023-07-29T09:49:49;4.07;;;3.87;;
3207;SDS011;1616;52.394;9.756;2023-07-29T09:52:19;4.10;;;3.63;;
3207;SDS011;1616;52.394;9.756;2023-07-29T09:54:46;4.10;;;3.90;;
3207;SDS011;1616;52.394;9.756;2023-07-29T09:57:16;4.60;;;4.40;;
3207;SDS011;1616;52.394;9.756;2023-07-29T09:59:53;5.80;;;4.40;;
3207;SDS011;1616;52.394;9.756;2023-07-29T10:02:20;4.80;;;4.50;;
3207;SDS011;1616;52.394;9.756;2023-07-29T10:04:46;4.73;;;4.53;;
3207;SDS011;1616;52.394;9.756;2023-07-29T10:07:12;4.23;;;4.03;;
3207;SDS011;1616;52.394;9.756;2023-07-29T10:09:39;5.50;;;5.17;;
3207;SDS011;1616;52.394;9.756;2023-07-29T10:12:08;5.23;;;4.80;;
3207;SDS011;1616;52.394;9.756;2023-07-29T10:14:34;4.67;;;4.47;;
3207;SDS011;1616;52.394;9.756;2023-07-29T10:17:01;3.87;;;3.67;;
3207;SDS011;1616;52.394;9.756;2023-07-29T10:19:28;5.80;;;5.50;;
3207;SDS011;1616;52.394;9.756;2023-07-29T10:21:56;4.57;;;4.27;;
3207;SDS011;1616;52.394;9.756;2023-07-29T10:24:24;4.20;;;4.00;;
3207;SDS011;1616;52.394;9.756;2023-07-29T10:27:00;4.50;;;4.30;;
3207;SDS011;1616;52.394;9.756;2023-07-29T10:29:38;3.23;;;3.10;;
3207;SDS011;1616;52.394;9.756;2023-07-29T10:32:08;2.87;;;2.67;;
3207;SDS011;1616;52.394;9.756;2023-07-29T10:34:36;2.33;;;2.23;;
3207;SDS011;1616;52.394;9.756;2023-07-29T10:37:03;1.70;;;1.60;;
3207;SDS011;1616;52.394;9.756;2023-07-29T10:39:37;1.70;;;1.60;;
3207;SDS011;1616;52.394;9.756;2023-07-29T10:42:05;1.60;;;1.50;;
3207;SDS011;1616;52.394;9.756;2023-07-29T10:49:56;1.77;;;1.67;;
3207;SDS011;1616;52.394;9.756;2023-07-29T10:55:01;1.50;;;1.40;;
3207;SDS011;1616;52.394;9.756;2023-07-29T10:57:35;1.43;;;1.33;;
3207;SDS011;1616;52.394;9.756;2023-07-29T11:00:04;1.60;;;1.50;;
3207;SDS011;1616;52.394;9.756;2023-07-29T11:02:30;1.43;;;1.33;;
3207;SDS011;1616;52.394;9.756;2023-07-29T11:04:57;1.30;;;1.20;;
3207;SDS011;1616;52.394;9.756;2023-07-29T11:07:25;1.60;;;1.50;;
3207;SDS011;1616;52.394;9.756;2023-07-29T11:12:39;1.40;;;1.30;;
3207;SDS011;1616;52.394;9.756;2023-07-29T11:17:39;1.50;;;1.40;;
3207;SDS011;1616;52.394;9.756;2023-07-29T11:20:05;6.60;;;1.40;;
3207;SDS011;1616;52.394;9.756;2023-07-29T11:22:35;1.50;;;1.40;;
3207;SDS011;1616;52.394;9.756;2023-07-29T11:25:01;1.40;;;1.30;;
3207;SDS011;1616;52.394;9.756;2023-07-29T11:27:27;1.20;;;1.10;;
3207;SDS011;1616;52.394;9.756;2023-07-29T11:30:00;1.37;;;1.27;;
3207;SDS011;1616;52.394;9.756;2023-07-29T11:32:27;1.40;;;1.10;;
3207;SDS011;1616;52.394;9.756;2023-07-29T11:34:53;1.87;;;1.03;;
3207;SDS011;1616;52.394;9.756;2023-07-29T11:37:18;1.13;;;1.00;;
3207;SDS011;1616;52.394;9.756;2023-07-29T11:39:46;1.20;;;1.10;;
3207;SDS011;1616;52.394;9.756;2023-07-29T11:42:12;0.97;;;0.80;;
3207;SDS011;1616;52.394;9.756;2023-07-29T11:44:41;0.90;;;0.70;;
3207;SDS011;1616;52.394;9.756;2023-07-29T11:47:08;1.10;;;0.83;;
3207;SDS011;1616;52.394;9.756;2023-07-29T11:49:34;0.90;;;0.70;;
3207;SDS011;1616;52.394;9.756;2023-07-29T11:52:02;0.90;;;0.60;;
3207;SDS011;1616;52.394;9.756;2023-07-29T11:54:28;0.90;;;0.60;;
3207;SDS011;1616;52.394;9.756;2023-07-29T11:56:55;0.80;;;0.50;;
3207;SDS011;1616;52.394;9.756;2023-07-29T11:59:21;1.23;;;0.60;;
3207;SDS011;1616;52.394;9.756;2023-07-29T12:01:47;0.90;;;0.60;;
3207;SDS011;1616;52.394;9.756;2023-07-29T12:04:13;0.90;;;0.50;;
3207;SDS011;1616;52.394;9.756;2023-07-29T12:06:39;2.23;;;0.60;;
3207;SDS011;1616;52.394;9.756;2023-07-29T12:09:05;0.80;;;0.50;;
3207;SDS011;1616;52.394;9.756;2023-07-29T12:11:31;2.60;;;0.80;;
3207;SDS011;1616;52.394;9.756;2023-07-29T12:13:57;0.80;;;0.60;;
3207;SDS011;1616;52.394;9.756;2023-07-29T12:16:26;1.00;;;0.70;;
3207;SDS011;1616;52.394;9.756;2023-07-29T12:18:52;0.90;;;0.60;;
3207;SDS011;1616;52.394;9.756;2023-07-29T12:21:21;0.80;;;0.50;;
3207;SDS011;1616;52.394;9.756;2023-07-29T12:23:46;2.60;;;0.70;;
3207;SDS011;1616;52.394;9.756;2023-07-29T12:26:14;1.73;;;0.70;;
3207;SDS011;1616;52.394;9.756;2023-07-29T12:28:44;0.90;;;0.60;;
3207;SDS011;1616;52.394;9.756;2023-07-29T12:31:11;0.90;;;0.50;;
3207;SDS011;1616;52.394;9.756;2023-07-29T12:33:37;1.83;;;0.60;;
3207;SDS011;1616;52.394;9.756;2023-07-29T12:36:05;0.80;;;0.50;;
3207;SDS011;1616;52.394;9.756;2023-07-29T12:38:30;0.93;;;0.63;;
3207;SDS011;1616;52.394;9.756;2023-07-29T12:40:56;0.80;;;0.53;;
3207;SDS011;1616;52.394;9.756;2023-07-29T12:43:22;0.90;;;0.70;;
3207;SDS011;1616;52.394;9.756;2023-07-29T12:45:51;0.80;;;0.50;;
3207;SDS011;1616;52.394;9.756;2023-07-29T12:48:17;1.10;;;0.80;;
3207;SDS011;1616;52.394;9.756;2023-07-29T12:50:43;0.90;;;0.70;;
3207;SDS011;1616;52.394;9.756;2023-07-29T12:53:09;0.90;;;0.60;;
3207;SDS011;1616;52.394;9.756;2023-07-29T12:55:35;1.00;;;0.70;;
3207;SDS011;1616;52.394;9.756;2023-07-29T12:58:01;0.87;;;0.53;;
3207;SDS011;1616;52.394;9.756;2023-07-29T13:00:28;1.60;;;0.60;;
3207;SDS011;1616;52.394;9.756;2023-07-29T13:02:54;0.90;;;0.60;;
3207;SDS011;1616;52.394;9.756;2023-07-29T13:05:20;0.80;;;0.50;;
3207;SDS011;1616;52.394;9.756;2023-07-29T13:07:46;1.00;;;0.60;;
3207;SDS011;1616;52.394;9.756;2023-07-29T13:10:11;0.90;;;0.57;;
3207;SDS011;1616;52.394;9.756;2023-07-29T13:12:38;0.90;;;0.60;;
3207;SDS011;1616;52.394;9.756;2023-07-29T13:15:04;0.83;;;0.60;;
3207;SDS011;1616;52.394;9.756;2023-07-29T13:17:31;1.87;;;0.60;;
3207;SDS011;1616;52.394;9.756;2023-07-29T13:19:57;0.90;;;0.60;;
3207;SDS011;1616;52.394;9.756;2023-07-29T13:22:23;1.00;;;0.63;;
3207;SDS011;1616;52.394;9.756;2023-07-29T13:24:49;0.90;;;0.50;;
3207;SDS011;1616;52.394;9.756;2023-07-29T13:27:15;3.93;;;0.70;;
3207;SDS011;1616;52.394;9.756;2023-07-29T13:29:40;0.90;;;0.60;;
3207;SDS011;1616;52.394;9.756;2023-07-29T13:32:06;0.80;;;0.50;;
3207;SDS011;1616;52.394;9.756;2023-07-29T13:34:32;0.93;;;0.70;;
3207;SDS011;1616;52.394;9.756;2023-07-29T13:36:59;0.90;;;0.60;;
3207;SDS011;1616;52.394;9.756;2023-07-29T13:39:25;1.07;;;0.70;;
3207;SDS011;1616;52.394;9.756;2023-07-29T13:41:51;1.43;;;0.70;;
3207;SDS011;1616;52.394;9.756;2023-07-29T13:44:16;1.00;;;0.70;;
3207;SDS011;1616;52.394;9.756;2023-07-29T13:46:43;1.00;;;0.60;;
3207;SDS011;1616;52.394;9.756;2023-07-29T13:49:09;0.97;;;0.70;;
3207;SDS011;1616;52.394;9.756;2023-07-29T13:51:34;0.83;;;0.60;;
3207;SDS011;1616;52.394;9.756;2023-07-29T13:54:00;0.90;;;0.60;;
3207;SDS011;1616;52.394;9.756;2023-07-29T13:56:25;0.90;;;0.60;;
3207;SDS011;1616;52.394;9.756;2023-07-29T13:58:52;1.00;;;0.80;;
3207;SDS011;1616;52.394;9.756;2023-07-29T14:01:17;5.80;;;0.63;;
3207;SDS011;1616;52.394;9.756;2023-07-29T14:03:43;0.93;;;0.60;;
3207;SDS011;1616;52.394;9.756;2023-07-29T14:06:10;1.00;;;0.70;;
3207;SDS011;1616;52.394;9.756;2023-07-29T14:08:36;1.07;;;0.77;;
3207;SDS011;1616;52.394;9.756;2023-07-29T14:11:03;0.90;;;0.60;;
3207;SDS011;1616;52.394;9.756;2023-07-29T14:13:29;0.90;;;0.60;;
3207;SDS011;1616;52.394;9.756;2023-07-29T14:15:55;0.90;;;0.60;;
3207;SDS011;1616;52.394;9.756;2023-07-29T14:18:21;0.80;;;0.50;;
3207;SDS011;1616;52.394;9.756;2023-07-29T14:20:48;0.80;;;0.60;;
3207;SDS011;1616;52.394;9.756;2023-07-29T14:23:16;0.90;;;0.60;;
3207;SDS011;1616;52.394;9.756;2023-07-29T14:25:41;1.10;;;0.60;;
3207;SDS011;1616;52.394;9.756;2023-07-29T14:28:07;0.87;;;0.50;;
3207;SDS011;1616;52.394;9.756;2023-07-29T14:30:33;0.90;;;0.77;;
3207;SDS011;1616;52.394;9.756;2023-07-29T14:33:00;1.80;;;0.73;;
3207;SDS011;1616;52.394;9.756;2023-07-29T14:35:26;0.90;;;0.60;;
3207;SDS011;1616;52.394;9.756;2023-07-29T14:37:52;0.90;;;0.63;;
3207;SDS011;1616;52.394;9.756;2023-07-29T14:40:19;1.87;;;0.70;;
3207;SDS011;1616;52.394;9.756;2023-07-29T14:42:44;0.90;;;0.60;;
3207;SDS011;1616;52.394;9.756;2023-07-29T14:45:10;1.47;;;0.73;;
3207;SDS011;1616;52.394;9.756;2023-07-29T14:47:35;1.20;;;0.70;;
3207;SDS011;1616;52.394;9.756;2023-07-29T14:50:02;1.20;;;0.70;;
3207;SDS011;1616;52.394;9.756;2023-07-29T14:52:28;0.90;;;0.80;;
3207;SDS011;1616;52.394;9.756;2023-07-29T14:54:54;2.73;;;0.80;;
3207;SDS011;1616;52.394;9.756;2023-07-29T14:57:19;0.90;;;0.80;;
3207;SDS011;1616;52.394;9.756;2023-07-29T14:59:46;1.10;;;0.80;;
3207;SDS011;1616;52.394;9.756;2023-07-29T15:02:11;1.93;;;0.70;;
3207;SDS011;1616;52.394;9.756;2023-07-29T15:04:37;0.90;;;0.80;;
3207;SDS011;1616;52.394;9.756;2023-07-29T15:07:03;1.00;;;0.50;;
3207;SDS011;1616;52.394;9.756;2023-07-29T15:09:29;1.73;;;1.10;;
3207;SDS011;1616;52.394;9.756;2023-07-29T15:11:54;0.90;;;0.70;;
3207;SDS011;1616;52.394;9.756;2023-07-29T15:14:20;3.40;;;0.70;;
3207;SDS011;1616;52.394;9.756;2023-07-29T15:16:45;1.87;;;0.60;;
3207;SDS011;1616;52.394;9.756;2023-07-29T15:19:11;16.67;;;1.10;;
3207;SDS011;1616;52.394;9.756;2023-07-29T15:21:37;3.13;;;0.70;;
3207;SDS011;1616;52.394;9.756;2023-07-29T15:24:03;0.90;;;0.70;;
3207;SDS011;1616;52.394;9.756;2023-07-29T15:26:29;0.90;;;0.70;;
3207;SDS011;1616;52.394;9.756;2023-07-29T15:28:55;0.97;;;0.77;;